createdAt,value
2023-03-25T00:00:17.040Z,9.88
2023-03-25T00:02:45.420Z,8.95
2023-03-25T00:05:15.045Z,7.13
2023-03-25T00:07:46.455Z,8.85
2023-03-25T00:10:14.174Z,9.37
2023-03-25T00:12:42.706Z,9.73
2023-03-25T00:15:11.210Z,11.45
2023-03-25T00:17:38.809Z,9.75
2023-03-25T00:20:09.888Z,9.90
2023-03-25T00:22:41.187Z,9.60
2023-03-25T00:25:17.838Z,11.00
2023-03-25T00:27:46.834Z,10.30
2023-03-25T00:30:15.820Z,10.30
2023-03-25T00:32:46.217Z,9.45
2023-03-25T00:35:14.063Z,10.25
2023-03-25T00:37:41.385Z,11.45
2023-03-25T00:40:09.059Z,13.23
2023-03-25T00:42:36.009Z,8.02
2023-03-25T00:45:03.566Z,11.70
2023-03-25T00:47:31.609Z,8.90
2023-03-25T00:49:58.562Z,10.93
2023-03-25T00:52:25.466Z,9.80
2023-03-25T00:54:53.975Z,11.15
2023-03-25T00:57:21.270Z,11.07
2023-03-25T00:59:48.133Z,10.45
2023-03-25T01:02:16.571Z,23.20
2023-03-25T01:04:45.710Z,9.63
2023-03-25T01:07:16.641Z,10.63
2023-03-25T01:09:46.621Z,8.67
2023-03-25T01:12:15.136Z,9.90
2023-03-25T01:14:42.487Z,8.93
2023-03-25T01:17:09.332Z,12.88
2023-03-25T01:19:36.210Z,10.25
2023-03-25T01:22:03.277Z,14.80
2023-03-25T01:24:30.418Z,17.20
2023-03-25T01:26:57.436Z,12.35
2023-03-25T01:29:24.403Z,14.02
2023-03-25T01:31:51.727Z,10.65
2023-03-25T01:34:18.679Z,17.23
2023-03-25T01:36:46.869Z,12.80
2023-03-25T01:39:16.875Z,10.20
2023-03-25T01:41:50.186Z,10.00
2023-03-25T01:44:21.093Z,11.05
2023-03-25T01:46:49.645Z,10.68
2023-03-25T01:49:39.379Z,9.50
2023-03-25T01:52:12.975Z,10.27
2023-03-25T01:54:41.090Z,13.23
2023-03-25T01:57:09.308Z,10.70
2023-03-25T01:59:37.184Z,12.05
2023-03-25T02:02:04.848Z,11.65
2023-03-25T02:05:00.607Z,10.77
2023-03-25T02:07:31.201Z,12.00
2023-03-25T02:10:03.138Z,11.27
2023-03-25T02:12:30.454Z,13.95
2023-03-25T02:14:58.316Z,11.80
2023-03-25T02:17:31.999Z,13.15
2023-03-25T02:20:31.327Z,15.32
2023-03-25T02:23:42.316Z,14.45
2023-03-25T02:26:42.556Z,13.27
2023-03-25T02:29:50.729Z,14.30
2023-03-25T02:32:47.427Z,16.05
2023-03-25T02:35:14.385Z,15.32
2023-03-25T02:38:17.389Z,17.25
2023-03-25T02:40:52.264Z,12.32
2023-03-25T02:43:36.420Z,12.35
2023-03-25T02:46:10.461Z,16.88
2023-03-25T02:49:01.809Z,14.18
2023-03-25T02:51:38.942Z,15.75
2023-03-25T02:54:13.232Z,14.13
2023-03-25T02:56:41.800Z,10.65
2023-03-25T02:59:14.345Z,13.85
2023-03-25T03:01:42.255Z,13.63
2023-03-25T03:04:09.280Z,15.23
2023-03-25T03:06:39.932Z,10.32
2023-03-25T03:09:27.274Z,13.50
2023-03-25T03:12:06.275Z,12.07
2023-03-25T03:15:06.917Z,13.15
2023-03-25T03:17:58.280Z,13.60
2023-03-25T03:20:43.437Z,12.63
2023-03-25T03:23:24.347Z,16.77
2023-03-25T03:26:05.595Z,11.73
2023-03-25T03:28:40.413Z,12.60
2023-03-25T03:31:56.273Z,17.55
2023-03-25T03:34:19.430Z,18.98
2023-03-25T03:36:49.062Z,21.15
2023-03-25T03:39:28.987Z,21.83
2023-03-25T03:42:08.325Z,20.27
2023-03-25T03:44:37.421Z,23.50
2023-03-25T03:47:07.776Z,23.80
2023-03-25T03:49:38.594Z,22.17
2023-03-25T03:52:25.719Z,24.23
2023-03-25T03:54:58.417Z,25.95
2023-03-25T03:57:50.897Z,28.02
2023-03-25T04:00:26.816Z,21.58
2023-03-25T04:03:05.399Z,17.23
2023-03-25T04:05:35.133Z,16.27
2023-03-25T04:08:12.842Z,18.13
2023-03-25T04:10:52.837Z,20.30
2023-03-25T04:13:21.585Z,19.35
2023-03-25T04:15:49.206Z,17.75
2023-03-25T04:18:17.800Z,25.98
2023-03-25T04:20:44.993Z,23.73
2023-03-25T04:23:16.163Z,22.50
2023-03-25T04:25:47.884Z,18.90
2023-03-25T04:28:17.874Z,19.48
2023-03-25T04:30:55.866Z,16.83
2023-03-25T04:33:23.717Z,17.15
2023-03-25T04:35:51.165Z,19.08
2023-03-25T04:38:19.139Z,13.32
2023-03-25T04:40:46.889Z,18.27
2023-03-25T04:43:14.725Z,14.73
2023-03-25T04:45:49.840Z,14.90
2023-03-25T04:48:24.116Z,18.02
2023-03-25T04:50:56.024Z,18.48
2023-03-25T04:53:22.936Z,10.73
2023-03-25T04:55:50.572Z,14.63
2023-03-25T04:58:18.058Z,16.63
2023-03-25T05:00:46.287Z,16.75
2023-03-25T05:03:16.049Z,16.15
2023-03-25T05:05:43.243Z,16.63
2023-03-25T05:08:11.612Z,13.88
2023-03-25T05:10:39.081Z,13.32
2023-03-25T05:13:07.508Z,12.80
2023-03-25T05:15:39.415Z,17.13
2023-03-25T05:18:14.674Z,20.35
2023-03-25T05:20:43.666Z,26.52
2023-03-25T05:23:18.206Z,12.18
2023-03-25T05:25:50.627Z,22.95
2023-03-25T05:28:18.459Z,11.98
2023-03-25T05:30:47.138Z,14.80
2023-03-25T05:33:16.317Z,15.63
2023-03-25T05:35:43.939Z,18.48
2023-03-25T05:38:16.774Z,20.67
2023-03-25T05:40:45.555Z,18.20
2023-03-25T05:43:14.990Z,17.17
2023-03-25T05:45:42.946Z,19.30
2023-03-25T05:48:09.903Z,15.38
2023-03-25T05:50:38.215Z,18.65
2023-03-25T05:53:05.603Z,22.55
2023-03-25T05:55:32.572Z,13.13
2023-03-25T05:57:59.486Z,15.13
2023-03-25T06:00:26.514Z,16.48
2023-03-25T06:02:53.490Z,13.05
2023-03-25T06:05:23.931Z,15.75
2023-03-25T06:07:51.677Z,11.85
2023-03-25T06:10:19.139Z,17.55
2023-03-25T06:12:47.301Z,13.82
2023-03-25T06:15:18.372Z,8.80
2023-03-25T06:17:47.365Z,10.38
2023-03-25T06:20:16.649Z,11.38
2023-03-25T06:22:47.478Z,12.70
2023-03-25T06:25:19.916Z,9.90
2023-03-25T06:27:49.391Z,11.20
2023-03-25T06:30:21.045Z,12.80
2023-03-25T06:32:50.668Z,11.52
2023-03-25T06:35:20.527Z,12.45
2023-03-25T06:37:48.321Z,15.13
2023-03-25T06:40:16.032Z,11.80
2023-03-25T06:42:43.002Z,9.48
2023-03-25T06:45:10.204Z,10.80
2023-03-25T06:47:37.096Z,8.45
2023-03-25T06:50:04.538Z,10.38
2023-03-25T06:52:31.370Z,9.68
2023-03-25T06:54:58.365Z,9.98
2023-03-25T06:57:25.369Z,10.10
2023-03-25T06:59:52.370Z,9.30
2023-03-25T07:02:19.183Z,9.20
2023-03-25T07:04:46.078Z,16.50
2023-03-25T07:07:12.946Z,9.13
2023-03-25T07:09:39.843Z,8.52
2023-03-25T07:12:08.949Z,10.05
2023-03-25T07:14:36.262Z,7.97
2023-03-25T07:17:03.253Z,7.90
2023-03-25T07:19:30.134Z,7.40
2023-03-25T07:21:56.970Z,6.82
2023-03-25T07:24:24.154Z,9.38
2023-03-25T07:26:50.999Z,7.35
2023-03-25T07:29:17.958Z,6.40
2023-03-25T07:31:46.766Z,6.28
2023-03-25T07:34:13.751Z,6.63
2023-03-25T07:36:40.652Z,5.72
2023-03-25T07:39:08.055Z,6.70
2023-03-25T07:41:35.033Z,8.90
2023-03-25T07:44:01.999Z,7.80
2023-03-25T07:46:29.073Z,7.85
2023-03-25T07:48:58.329Z,6.65
2023-03-25T07:51:25.377Z,7.43
2023-03-25T07:53:52.348Z,6.95
2023-03-25T07:56:19.193Z,8.70
2023-03-25T07:58:46.538Z,8.00
2023-03-25T08:01:15.868Z,7.28
2023-03-25T08:03:42.767Z,9.45
2023-03-25T08:06:09.855Z,9.18
2023-03-25T08:08:36.762Z,6.20
2023-03-25T08:11:03.755Z,5.95
2023-03-25T08:13:31.173Z,9.02
2023-03-25T08:15:58.213Z,6.38
2023-03-25T08:18:25.368Z,6.13
2023-03-25T08:20:54.474Z,8.15
2023-03-25T08:23:22.563Z,8.90
2023-03-25T08:25:51.167Z,6.90
2023-03-25T08:28:23.327Z,6.57
2023-03-25T08:30:55.342Z,7.53
2023-03-25T08:33:27.285Z,5.82
2023-03-25T08:38:25.597Z,9.38
2023-03-25T08:40:52.649Z,7.10
2023-03-25T08:43:19.630Z,7.57
2023-03-25T08:45:46.730Z,7.95
2023-03-25T08:48:13.598Z,9.95
2023-03-25T08:50:40.605Z,7.50
2023-03-25T08:53:07.593Z,8.63
2023-03-25T08:55:34.508Z,5.15
2023-03-25T08:58:06.415Z,8.07
2023-03-25T09:00:37.676Z,7.53
2023-03-25T09:03:05.558Z,7.07
2023-03-25T09:05:32.494Z,7.57
2023-03-25T09:07:59.419Z,11.93
2023-03-25T09:10:28.597Z,8.70
2023-03-25T09:12:58.048Z,12.23
2023-03-25T09:15:24.934Z,6.45
2023-03-25T09:17:51.832Z,7.22
2023-03-25T09:20:18.865Z,7.93
2023-03-25T09:22:45.915Z,4.72
2023-03-25T09:25:14.132Z,3.97
2023-03-25T09:27:41.087Z,6.20
2023-03-25T09:30:10.338Z,5.78
2023-03-25T09:32:37.457Z,5.88
2023-03-25T09:35:05.010Z,7.63
2023-03-25T09:37:31.817Z,7.90
2023-03-25T09:39:58.772Z,4.82
2023-03-25T09:42:46.792Z,4.65
2023-03-25T09:45:34.533Z,5.70
2023-03-25T09:48:06.791Z,6.82
2023-03-25T09:53:10.322Z,4.03
2023-03-25T09:55:41.633Z,6.82
2023-03-25T09:58:28.686Z,4.67
2023-03-25T10:01:17.846Z,6.85
2023-03-25T10:04:11.723Z,11.02
2023-03-25T10:07:02.599Z,5.90
2023-03-25T10:09:32.680Z,4.18
2023-03-25T10:12:21.191Z,10.48
2023-03-25T10:15:24.376Z,8.35
2023-03-25T10:18:04.447Z,5.95
2023-03-25T10:20:42.317Z,8.73
2023-03-25T10:23:15.448Z,7.72
2023-03-25T10:25:46.378Z,6.13
2023-03-25T10:28:26.184Z,8.70
2023-03-25T10:30:54.095Z,3.83
2023-03-25T10:33:37.981Z,4.80
2023-03-25T10:36:08.058Z,3.40
2023-03-25T10:38:36.517Z,3.63
2023-03-25T10:41:37.097Z,3.27
2023-03-25T10:44:11.123Z,3.50
2023-03-25T10:46:52.409Z,7.07
2023-03-25T10:49:22.242Z,3.80
2023-03-25T10:51:54.727Z,2.63
2023-03-25T10:54:29.984Z,4.88
2023-03-25T10:56:59.733Z,3.65
2023-03-25T10:59:56.213Z,5.07
2023-03-25T11:02:27.874Z,5.00
2023-03-25T11:05:01.760Z,4.50
2023-03-25T11:07:41.774Z,2.30
2023-03-25T11:10:29.996Z,2.80
2023-03-25T11:12:58.833Z,4.43
2023-03-25T11:15:47.774Z,2.97
2023-03-25T11:18:27.557Z,3.92
2023-03-25T11:21:08.118Z,3.47
2023-03-25T11:23:36.933Z,3.72
2023-03-25T11:26:12.247Z,4.53
2023-03-25T11:28:44.977Z,3.88
2023-03-25T11:31:21.513Z,4.10
2023-03-25T11:34:06.730Z,4.85
2023-03-25T11:36:40.253Z,3.58
2023-03-25T11:39:28.738Z,3.22
2023-03-25T11:41:55.734Z,3.33
2023-03-25T11:44:33.365Z,3.55
2023-03-25T11:47:06.633Z,5.35
2023-03-25T11:49:37.335Z,4.78
2023-03-25T11:52:39.747Z,3.35
2023-03-25T11:57:39.186Z,5.60
2023-03-25T12:00:30.869Z,6.15
2023-03-25T12:03:06.607Z,4.15
2023-03-25T12:05:34.125Z,3.28
2023-03-25T12:08:15.521Z,6.38
2023-03-25T12:11:07.825Z,4.60
2023-03-25T12:13:47.035Z,4.30
2023-03-25T12:16:51.012Z,4.10
2023-03-25T12:19:35.711Z,1.98
2023-03-25T12:22:27.668Z,4.70
2023-03-25T12:25:02.396Z,6.88
2023-03-25T12:27:53.451Z,3.72
2023-03-25T12:30:38.982Z,4.70
2023-03-25T12:33:22.735Z,3.60
2023-03-25T12:36:40.506Z,8.57
2023-03-25T12:39:41.703Z,7.60
2023-03-25T12:42:24.733Z,2.13
2023-03-25T12:45:04.861Z,3.00
2023-03-25T12:47:53.712Z,6.63
2023-03-25T12:50:32.304Z,5.95
2023-03-25T12:53:17.652Z,5.35
2023-03-25T12:56:23.611Z,8.00
2023-03-25T12:59:36.403Z,6.28
2023-03-25T13:02:15.405Z,7.70
2023-03-25T13:04:55.982Z,6.97
2023-03-25T13:07:27.426Z,7.80
2023-03-25T13:10:19.412Z,14.00
2023-03-25T13:12:52.269Z,21.40
2023-03-25T13:15:27.168Z,13.40
2023-03-25T13:18:02.294Z,9.43
2023-03-25T13:20:32.519Z,9.07
2023-03-25T13:23:02.270Z,10.00
2023-03-25T13:25:42.947Z,8.18
2023-03-25T13:28:13.297Z,11.07
2023-03-25T13:30:42.582Z,10.90
2023-03-25T13:33:30.466Z,11.93
2023-03-25T13:36:20.094Z,10.82
2023-03-25T13:38:57.686Z,9.18
2023-03-25T13:41:37.426Z,11.32
2023-03-25T13:44:07.246Z,10.07
2023-03-25T13:46:43.509Z,10.88
2023-03-25T13:49:24.216Z,11.75
2023-03-25T13:51:51.320Z,11.85
2023-03-25T13:54:21.814Z,10.38
2023-03-25T13:56:57.436Z,11.05
2023-03-25T13:59:52.146Z,9.07
2023-03-25T14:02:47.270Z,8.23
2023-03-25T14:05:33.402Z,11.38
2023-03-25T14:08:30.480Z,7.45
2023-03-25T14:11:20.627Z,5.85
2023-03-25T14:14:07.275Z,7.63
2023-03-25T14:16:37.695Z,8.60
2023-03-25T14:19:10.044Z,9.43
2023-03-25T14:21:36.846Z,7.50
2023-03-25T14:24:09.420Z,8.98
2023-03-25T14:26:50.605Z,10.40
2023-03-25T14:29:32.442Z,12.07
2023-03-25T14:32:02.169Z,8.65
2023-03-25T14:34:29.201Z,8.23
2023-03-25T14:36:57.569Z,8.07
2023-03-25T14:39:30.694Z,10.32
2023-03-25T14:42:03.854Z,10.07
2023-03-25T14:44:41.471Z,10.80
2023-03-25T14:47:20.758Z,10.50
2023-03-25T14:50:01.631Z,13.52
2023-03-25T14:52:42.043Z,11.80
2023-03-25T14:55:26.286Z,11.98
2023-03-25T14:58:02.537Z,9.50
2023-03-25T15:00:34.246Z,14.85
2023-03-25T15:03:05.060Z,9.40
2023-03-25T15:05:33.383Z,10.30
2023-03-25T15:08:17.773Z,10.32
2023-03-25T15:10:49.787Z,7.55
2023-03-25T15:15:58.082Z,8.13
2023-03-25T15:18:37.525Z,4.60
2023-03-25T15:21:13.391Z,5.55
2023-03-25T15:24:07.945Z,2.13
2023-03-25T15:26:43.544Z,4.00
2023-03-25T15:29:36.526Z,4.20
2023-03-25T15:32:03.485Z,4.32
2023-03-25T15:35:08.192Z,4.20
2023-03-25T15:38:00.056Z,1.90
2023-03-25T15:40:46.962Z,2.80
2023-03-25T15:43:32.258Z,2.28
2023-03-25T15:46:27.866Z,1.90
2023-03-25T15:49:16.328Z,2.30
2023-03-25T15:52:06.255Z,3.47
2023-03-25T15:54:44.003Z,3.67
2023-03-25T15:57:36.763Z,2.45
2023-03-25T16:00:32.652Z,2.88
2023-03-25T16:03:04.115Z,3.58
2023-03-25T16:05:52.586Z,3.03
2023-03-25T16:08:32.838Z,6.00
2023-03-25T16:11:19.456Z,3.00
2023-03-25T16:13:47.015Z,17.27
2023-03-25T16:16:16.656Z,3.60
2023-03-25T16:18:45.862Z,4.20
2023-03-25T16:21:12.964Z,4.47
2023-03-25T16:23:40.638Z,2.78
2023-03-25T16:26:07.553Z,3.13
2023-03-25T16:28:40.959Z,3.03
2023-03-25T16:31:27.807Z,6.55
2023-03-25T16:33:59.669Z,4.65
2023-03-25T16:36:26.646Z,4.32
2023-03-25T16:38:53.531Z,5.63
2023-03-25T16:41:20.689Z,5.35
2023-03-25T16:43:48.004Z,2.80
2023-03-25T16:46:16.711Z,3.83
2023-03-25T16:48:50.917Z,9.80
2023-03-25T16:51:35.385Z,9.60
2023-03-25T16:54:08.890Z,6.43
2023-03-25T16:56:39.952Z,11.07
2023-03-25T16:59:21.458Z,14.40
2023-03-25T17:01:57.550Z,19.38
2023-03-25T17:04:42.227Z,22.20
2023-03-25T17:07:14.765Z,23.10
2023-03-25T17:09:45.301Z,17.70
2023-03-25T17:12:18.468Z,15.38
2023-03-25T17:14:48.022Z,11.70
2023-03-25T17:17:33.625Z,15.25
2023-03-25T17:20:06.986Z,11.57
2023-03-25T17:22:36.525Z,12.15
2023-03-25T17:25:28.497Z,14.23
2023-03-25T17:27:56.991Z,17.88
2023-03-25T17:30:44.706Z,12.15
2023-03-25T17:33:19.923Z,8.75
2023-03-25T17:35:56.693Z,7.70
2023-03-25T17:38:44.921Z,5.38
2023-03-25T17:41:12.773Z,5.28
2023-03-25T17:43:48.689Z,6.03
2023-03-25T17:46:21.781Z,5.25
2023-03-25T17:48:50.808Z,5.85
2023-03-25T17:51:18.761Z,7.45
2023-03-25T17:53:48.089Z,10.38
2023-03-25T17:56:17.503Z,12.38
2023-03-25T17:58:45.439Z,9.63
2023-03-25T18:01:13.198Z,12.98
2023-03-25T18:03:40.378Z,12.10
2023-03-25T18:06:07.853Z,8.63
2023-03-25T18:08:35.228Z,12.73
2023-03-25T18:11:02.327Z,9.82
2023-03-25T18:13:31.111Z,8.75
2023-03-25T18:15:57.983Z,11.15
2023-03-25T18:18:26.531Z,11.40
2023-03-25T18:21:03.699Z,8.23
2023-03-25T18:23:31.018Z,6.30
2023-03-25T18:25:58.309Z,10.63
2023-03-25T18:28:25.248Z,6.28
2023-03-25T18:31:02.333Z,7.85
2023-03-25T18:33:32.838Z,6.07
2023-03-25T18:35:59.991Z,6.30
2023-03-25T18:38:27.793Z,8.65
2023-03-25T18:40:56.403Z,5.25
2023-03-25T18:43:23.621Z,6.35
2023-03-25T18:45:50.507Z,7.25
2023-03-25T18:48:21.534Z,5.82
2023-03-25T18:50:56.755Z,4.70
2023-03-25T18:53:29.311Z,3.53
2023-03-25T18:56:00.171Z,5.07
2023-03-25T18:58:32.172Z,10.43
2023-03-25T19:01:00.713Z,16.08
2023-03-25T19:03:31.716Z,10.70
2023-03-25T19:05:59.844Z,11.43
2023-03-25T19:08:27.895Z,8.95
2023-03-25T19:11:04.692Z,9.10
2023-03-25T19:13:39.264Z,13.30
2023-03-25T19:16:06.765Z,7.88
2023-03-25T19:18:34.415Z,9.55
2023-03-25T19:21:01.398Z,8.90
2023-03-25T19:23:28.336Z,9.45
2023-03-25T19:25:58.092Z,11.07
2023-03-25T19:28:25.101Z,10.73
2023-03-25T19:30:54.493Z,9.75
2023-03-25T19:33:24.881Z,8.82
2023-03-25T19:35:54.453Z,10.13
2023-03-25T19:38:25.585Z,14.25
2023-03-25T19:41:02.582Z,19.90
2023-03-25T19:43:29.731Z,17.80
2023-03-25T19:45:57.278Z,15.38
2023-03-25T19:48:24.291Z,17.77
2023-03-25T19:50:54.894Z,16.33
2023-03-25T19:53:22.972Z,12.55
2023-03-25T19:55:51.554Z,17.40
2023-03-25T19:58:20.355Z,15.55
2023-03-25T20:00:47.712Z,15.80
2023-03-25T20:03:14.676Z,11.60
2023-03-25T20:05:41.877Z,10.18
2023-03-25T20:08:11.824Z,8.77
2023-03-25T20:10:41.080Z,10.15
2023-03-25T20:13:08.097Z,9.38
2023-03-25T20:15:35.857Z,10.32
2023-03-25T20:18:03.014Z,16.15
2023-03-25T20:20:32.363Z,14.25
2023-03-25T20:22:59.169Z,13.07
2023-03-25T20:25:26.035Z,13.02
2023-03-25T20:27:53.079Z,15.68
2023-03-25T20:30:20.391Z,10.43
2023-03-25T20:32:48.638Z,10.82
2023-03-25T20:35:16.382Z,10.98
2023-03-25T20:37:44.761Z,10.90
2023-03-25T20:40:16.531Z,10.55
2023-03-25T20:42:44.877Z,11.25
2023-03-25T20:45:13.962Z,11.07
2023-03-25T20:47:41.816Z,11.07
2023-03-25T20:50:10.170Z,11.40
2023-03-25T20:52:38.192Z,13.90
2023-03-25T20:55:05.834Z,14.57
2023-03-25T20:57:33.290Z,12.55
2023-03-25T21:00:00.317Z,14.07
2023-03-25T21:02:27.391Z,9.90
2023-03-25T21:04:56.965Z,8.70
2023-03-25T21:07:27.875Z,8.75
2023-03-25T21:09:55.439Z,9.05
2023-03-25T21:12:29.735Z,10.80
2023-03-25T21:14:56.957Z,8.43
2023-03-25T21:17:23.832Z,8.27
2023-03-25T21:19:52.003Z,8.82
2023-03-25T21:22:18.905Z,8.77
2023-03-25T21:24:45.946Z,9.38
2023-03-25T21:27:17.649Z,11.40
2023-03-25T21:29:46.314Z,9.73
2023-03-25T21:32:13.976Z,10.35
2023-03-25T21:34:40.980Z,8.95
2023-03-25T21:37:08.017Z,9.32
2023-03-25T21:39:35.348Z,7.22
2023-03-25T21:42:10.626Z,11.15
2023-03-25T21:44:38.448Z,9.38
2023-03-25T21:47:08.726Z,9.43
2023-03-25T21:49:35.627Z,10.70
2023-03-25T21:52:03.444Z,12.18
2023-03-25T21:54:30.716Z,9.40
2023-03-25T21:56:57.620Z,14.48
2023-03-25T21:59:24.467Z,13.13
2023-03-25T22:01:53.323Z,9.18
2023-03-25T22:04:23.080Z,10.18
2023-03-25T22:06:49.994Z,9.30
2023-03-25T22:09:16.866Z,9.07
2023-03-25T22:11:43.888Z,8.02
2023-03-25T22:14:10.812Z,8.13
2023-03-25T22:16:38.165Z,8.55
2023-03-25T22:19:05.700Z,9.68
2023-03-25T22:21:34.586Z,8.50
2023-03-25T22:24:02.851Z,7.68
2023-03-25T22:26:31.427Z,9.38
2023-03-25T22:29:01.154Z,9.82
2023-03-25T22:31:32.035Z,7.57
2023-03-25T22:34:03.708Z,8.73
2023-03-25T22:36:31.953Z,7.00
2023-03-25T22:38:59.904Z,6.32
2023-03-25T22:41:27.159Z,6.93
2023-03-25T22:43:54.296Z,6.82
2023-03-25T22:46:21.543Z,4.63
2023-03-25T22:48:48.625Z,6.78
2023-03-25T22:51:17.899Z,6.20
2023-03-25T22:53:45.362Z,8.32
2023-03-25T22:56:13.406Z,7.15
2023-03-25T22:58:40.591Z,6.05
2023-03-25T23:01:21.237Z,7.22
2023-03-25T23:03:48.394Z,5.95
2023-03-25T23:06:15.924Z,6.50
2023-03-25T23:08:43.554Z,7.93
2023-03-25T23:11:16.436Z,5.57
2023-03-25T23:13:45.535Z,5.53
2023-03-25T23:16:15.012Z,8.32
2023-03-25T23:18:42.284Z,7.43
2023-03-25T23:21:13.519Z,7.18
2023-03-25T23:23:52.588Z,8.10
2023-03-25T23:26:29.256Z,6.60
2023-03-25T23:29:00.745Z,10.75
2023-03-25T23:31:33.836Z,8.70
2023-03-25T23:34:03.758Z,6.50
2023-03-25T23:36:31.786Z,6.95
2023-03-25T23:38:59.181Z,6.50
2023-03-25T23:41:26.342Z,7.32
2023-03-25T23:43:54.423Z,8.50
2023-03-25T23:46:23.214Z,7.65
2023-03-25T23:48:54.722Z,6.82
2023-03-25T23:51:24.275Z,9.65
2023-03-25T23:53:52.805Z,6.75
2023-03-25T23:56:22.167Z,9.85
2023-03-25T23:58:49.769Z,7.20
